createdAt,value
2023-03-04T00:01:29.054Z,-0.76
2023-03-04T00:03:58.607Z,-0.76
2023-03-04T00:06:26.716Z,-0.49
2023-03-04T00:08:54.792Z,-0.63
2023-03-04T00:11:22.863Z,-0.57
2023-03-04T00:13:51.028Z,-0.46
2023-03-04T00:16:19.114Z,-0.60
2023-03-04T00:18:47.175Z,-0.58
2023-03-04T00:21:16.617Z,-0.72
2023-03-04T00:23:44.740Z,-0.40
2023-03-04T00:26:13.595Z,-0.65
2023-03-04T00:28:44.347Z,-0.50
2023-03-04T00:31:12.974Z,-0.46
2023-03-04T00:33:43.535Z,-0.58
2023-03-04T00:36:12.405Z,-0.65
2023-03-04T00:38:41.849Z,-0.36
2023-03-04T00:41:09.970Z,-0.46
2023-03-04T00:43:38.104Z,-0.36
2023-03-04T00:46:07.256Z,-0.54
2023-03-04T00:48:35.428Z,-0.34
2023-03-04T00:51:03.480Z,-0.63
2023-03-04T00:53:31.616Z,-0.47
2023-03-04T00:56:01.026Z,-0.48
2023-03-04T00:58:29.270Z,-0.31
2023-03-04T01:00:57.357Z,-0.46
2023-03-04T01:03:26.996Z,-0.30
2023-03-04T01:05:55.095Z,-0.46
2023-03-04T01:08:23.919Z,-0.40
2023-03-04T01:10:54.337Z,-0.48
2023-03-04T01:13:23.811Z,-0.32
2023-03-04T01:15:52.023Z,-0.31
2023-03-04T01:18:20.114Z,0.03
2023-03-04T01:20:48.290Z,0.05
2023-03-04T01:23:16.302Z,-0.07
2023-03-04T01:25:44.403Z,-0.53
2023-03-04T01:28:12.490Z,-0.37
2023-03-04T01:30:43.767Z,-0.35
2023-03-04T01:33:11.837Z,-0.02
2023-03-04T01:35:39.925Z,-0.10
2023-03-04T01:38:08.138Z,-0.40
2023-03-04T01:40:36.279Z,-0.40
2023-03-04T01:43:04.467Z,-0.21
2023-03-04T01:45:33.599Z,-0.23
2023-03-04T01:48:03.183Z,-0.52
2023-03-04T01:50:34.379Z,-0.30
2023-03-04T01:53:02.917Z,-0.40
2023-03-04T01:55:32.095Z,-0.54
2023-03-04T01:58:00.376Z,-0.28
2023-03-04T02:00:32.114Z,-0.37
2023-03-04T02:03:07.285Z,-0.46
2023-03-04T02:05:38.115Z,-0.04
2023-03-04T02:08:07.204Z,-0.11
2023-03-04T02:10:35.935Z,-0.28
2023-03-04T02:13:05.360Z,-0.11
2023-03-04T02:15:34.249Z,-0.47
2023-03-04T02:18:06.744Z,-0.11
2023-03-04T02:20:43.775Z,-0.59
2023-03-04T02:23:18.178Z,-0.44
2023-03-04T02:25:51.056Z,-0.49
2023-03-04T02:28:20.908Z,-0.10
2023-03-04T02:30:49.195Z,0.04
2023-03-04T02:33:19.863Z,-0.40
2023-03-04T02:35:48.189Z,-0.20
2023-03-04T02:38:16.440Z,-0.43
2023-03-04T02:40:49.772Z,-0.30
2023-03-04T02:43:24.034Z,-0.02
2023-03-04T02:45:53.229Z,0.10
2023-03-04T02:48:24.031Z,-0.18
2023-03-04T02:50:54.098Z,-0.05
2023-03-04T02:53:23.102Z,-0.07
2023-03-04T02:55:51.454Z,-0.04
2023-03-04T02:58:22.136Z,-0.26
2023-03-04T03:00:51.683Z,0.05
2023-03-04T03:03:19.891Z,0.17
2023-03-04T03:05:48.406Z,-0.09
2023-03-04T03:08:16.758Z,-0.22
2023-03-04T03:10:44.953Z,-0.02
2023-03-04T03:13:13.260Z,-0.15
2023-03-04T03:15:42.488Z,-0.14
2023-03-04T03:18:12.837Z,-0.04
2023-03-04T03:20:43.458Z,0.02
2023-03-04T03:23:11.650Z,0.11
2023-03-04T03:25:39.906Z,0.01
2023-03-04T03:28:08.073Z,-0.12
2023-03-04T03:30:36.302Z,-0.32
2023-03-04T03:33:07.611Z,-0.05
2023-03-04T03:35:37.319Z,-0.08
2023-03-04T03:38:05.404Z,-0.17
2023-03-04T03:40:33.537Z,-0.22
2023-03-04T03:43:01.625Z,-0.39
2023-03-04T03:45:29.777Z,0.04
2023-03-04T03:47:57.893Z,-0.17
2023-03-04T03:50:26.052Z,-0.47
2023-03-04T03:52:55.697Z,-0.06
2023-03-04T03:55:23.796Z,-0.03
2023-03-04T03:57:51.887Z,-0.31
2023-03-04T04:00:20.811Z,-0.50
2023-03-04T04:02:48.975Z,0.02
2023-03-04T04:05:17.252Z,0.01
2023-03-04T04:07:45.271Z,-0.13
2023-03-04T04:10:14.696Z,-0.41
2023-03-04T04:12:42.828Z,-0.29
2023-03-04T04:15:12.864Z,-0.28
2023-03-04T04:17:41.098Z,-0.14
2023-03-04T04:20:10.625Z,-0.25
2023-03-04T04:22:38.652Z,-0.13
2023-03-04T04:25:10.627Z,-0.20
2023-03-04T04:27:40.133Z,-0.06
2023-03-04T04:30:09.318Z,0.09
2023-03-04T04:32:37.421Z,-0.04
2023-03-04T04:35:06.217Z,-0.24
2023-03-04T04:37:34.535Z,0.08
2023-03-04T04:40:02.624Z,0.00
2023-03-04T04:42:30.887Z,0.03
2023-03-04T04:45:00.304Z,0.09
2023-03-04T04:47:28.428Z,-0.19
2023-03-04T04:49:56.512Z,-0.16
2023-03-04T04:52:24.619Z,-0.30
2023-03-04T04:54:52.649Z,0.46
2023-03-04T04:57:20.883Z,0.39
2023-03-04T04:59:48.974Z,0.50
2023-03-04T05:02:18.384Z,0.78
2023-03-04T05:04:46.460Z,0.73
2023-03-04T05:07:14.536Z,0.59
2023-03-04T05:09:42.611Z,1.11
2023-03-04T05:12:10.714Z,1.07
2023-03-04T05:14:38.942Z,0.54
2023-03-04T05:17:07.037Z,0.64
2023-03-04T05:19:36.442Z,0.79
2023-03-04T05:22:04.549Z,0.49
2023-03-04T05:24:32.592Z,0.18
2023-03-04T05:27:00.691Z,0.35
2023-03-04T05:29:28.939Z,0.32
2023-03-04T05:31:57.129Z,0.53
2023-03-04T05:34:25.171Z,0.72
2023-03-04T05:36:54.611Z,0.27
2023-03-04T05:39:22.627Z,0.44
2023-03-04T05:41:50.667Z,0.23
2023-03-04T05:44:20.768Z,0.14
2023-03-04T05:46:49.824Z,-0.21
2023-03-04T05:49:17.856Z,0.02
2023-03-04T05:51:45.928Z,0.22
2023-03-04T05:54:16.208Z,0.05
2023-03-04T05:56:44.363Z,0.55
2023-03-04T05:59:12.461Z,0.24
2023-03-04T06:01:40.488Z,0.76
2023-03-04T06:04:08.577Z,0.64
2023-03-04T06:06:36.715Z,0.90
2023-03-04T06:09:04.928Z,0.53
2023-03-04T06:11:36.325Z,0.83
2023-03-04T06:14:04.758Z,0.62
2023-03-04T06:16:33.643Z,0.76
2023-03-04T06:19:01.712Z,0.44
2023-03-04T06:21:29.778Z,0.68
2023-03-04T06:23:57.884Z,-0.05
2023-03-04T06:26:25.922Z,0.57
2023-03-04T06:28:57.145Z,0.77
2023-03-04T06:31:25.249Z,1.01
2023-03-04T06:33:53.413Z,0.53
2023-03-04T06:36:21.466Z,0.78
2023-03-04T06:38:49.605Z,1.10
2023-03-04T06:41:17.668Z,1.03
2023-03-04T06:43:45.762Z,0.79
2023-03-04T06:46:15.274Z,0.49
2023-03-04T06:48:43.359Z,0.55
2023-03-04T06:51:14.545Z,0.60
2023-03-04T06:53:43.588Z,0.76
2023-03-04T06:56:13.693Z,0.83
2023-03-04T06:58:41.806Z,0.55
2023-03-04T07:01:16.095Z,0.36
2023-03-04T07:03:44.849Z,0.25
2023-03-04T07:06:14.204Z,0.12
2023-03-04T07:08:42.840Z,0.21
2023-03-04T07:11:11.415Z,-0.20
2023-03-04T07:13:39.508Z,0.19
2023-03-04T07:16:08.904Z,0.22
2023-03-04T07:18:38.644Z,0.23
2023-03-04T07:21:07.895Z,0.18
2023-03-04T07:23:36.484Z,0.22
2023-03-04T07:26:05.009Z,0.48
2023-03-04T07:28:33.332Z,0.36
2023-03-04T07:31:10.591Z,0.96
2023-03-04T07:33:40.056Z,0.51
2023-03-04T07:36:08.341Z,0.59
2023-03-04T07:38:36.421Z,0.58
2023-03-04T07:41:04.683Z,0.41
2023-03-04T07:43:32.784Z,0.84
2023-03-04T07:46:02.090Z,0.75
2023-03-04T07:48:30.294Z,0.70
2023-03-04T07:51:07.896Z,0.37
2023-03-04T07:53:36.858Z,0.69
2023-03-04T07:56:05.797Z,0.21
2023-03-04T07:58:34.328Z,0.21
2023-03-04T08:01:02.351Z,0.24
2023-03-04T08:03:30.824Z,0.11
2023-03-04T08:05:58.869Z,0.16
2023-03-04T08:08:28.450Z,0.24
2023-03-04T08:10:56.615Z,0.26
2023-03-04T08:13:25.901Z,0.06
2023-03-04T08:15:56.575Z,-0.06
2023-03-04T08:18:24.928Z,0.59
2023-03-04T08:20:53.472Z,0.42
2023-03-04T08:23:21.850Z,0.56
2023-03-04T08:25:51.415Z,0.53
2023-03-04T08:28:20.204Z,0.07
2023-03-04T08:30:54.673Z,0.58
2023-03-04T08:33:22.826Z,0.36
2023-03-04T08:35:50.993Z,0.62
2023-03-04T08:38:19.084Z,0.61
2023-03-04T08:40:47.214Z,0.53
2023-03-04T08:43:16.710Z,0.45
2023-03-04T08:45:44.874Z,0.48
2023-03-04T08:48:13.174Z,0.11
2023-03-04T08:50:41.375Z,0.78
2023-03-04T08:53:09.478Z,0.40
2023-03-04T08:55:39.665Z,0.55
2023-03-04T08:58:08.180Z,0.25
2023-03-04T09:00:42.440Z,0.67
2023-03-04T09:03:13.227Z,0.98
2023-03-04T09:05:42.104Z,0.63
2023-03-04T09:08:10.112Z,0.67
2023-03-04T09:10:38.317Z,0.44
2023-03-04T09:13:06.688Z,0.17
2023-03-04T09:15:36.146Z,0.90
2023-03-04T09:18:06.861Z,0.66
2023-03-04T09:20:34.990Z,1.28
2023-03-04T09:23:03.180Z,0.42
2023-03-04T09:25:31.300Z,1.01
2023-03-04T09:27:59.471Z,0.34
2023-03-04T09:30:29.028Z,0.38
2023-03-04T09:32:57.524Z,0.81
2023-03-04T09:35:27.084Z,0.74
2023-03-04T09:37:55.232Z,0.71
2023-03-04T09:40:25.678Z,0.42
2023-03-04T09:42:58.163Z,0.68
2023-03-04T09:45:30.861Z,0.83
2023-03-04T09:47:59.868Z,0.74
2023-03-04T09:50:34.735Z,1.42
2023-03-04T09:53:14.993Z,0.55
2023-03-04T09:55:48.184Z,0.71
2023-03-04T09:58:29.548Z,0.80
2023-03-04T10:01:05.225Z,0.60
2023-03-04T10:03:43.095Z,0.96
2023-03-04T10:06:18.028Z,1.57
2023-03-04T10:08:53.071Z,1.79
2023-03-04T10:11:27.170Z,1.17
2023-03-04T10:14:01.386Z,1.43
2023-03-04T10:16:36.031Z,1.40
2023-03-04T10:19:19.149Z,1.30
2023-03-04T10:21:51.096Z,0.87
2023-03-04T10:24:22.700Z,1.19
2023-03-04T10:26:54.653Z,0.66
2023-03-04T10:29:24.918Z,1.49
2023-03-04T10:31:56.145Z,0.76
2023-03-04T10:34:24.875Z,1.35
2023-03-04T10:37:01.289Z,0.66
2023-03-04T10:39:31.774Z,0.96
2023-03-04T10:42:02.548Z,1.42
2023-03-04T10:44:32.066Z,0.92
2023-03-04T10:47:00.344Z,0.81
2023-03-04T10:49:31.049Z,0.96
2023-03-04T10:52:16.442Z,0.70
2023-03-04T10:54:50.057Z,0.81
2023-03-04T10:57:20.676Z,1.61
2023-03-04T10:59:53.566Z,1.69
2023-03-04T11:02:27.095Z,1.43
2023-03-04T11:04:58.101Z,1.51
2023-03-04T11:07:28.758Z,1.26
2023-03-04T11:09:58.458Z,1.44
2023-03-04T11:12:35.144Z,1.53
2023-03-04T11:15:07.252Z,1.34
2023-03-04T11:17:45.158Z,1.70
2023-03-04T11:20:19.353Z,1.76
2023-03-04T11:22:48.875Z,0.99
2023-03-04T11:25:28.060Z,1.62
2023-03-04T11:27:58.803Z,1.46
2023-03-04T11:30:42.217Z,1.49
2023-03-04T11:33:17.131Z,1.38
2023-03-04T11:35:58.292Z,1.68
2023-03-04T11:38:36.737Z,1.88
2023-03-04T11:41:13.664Z,1.06
2023-03-04T11:43:46.255Z,1.24
2023-03-04T11:46:36.732Z,0.90
2023-03-04T11:49:22.677Z,0.97
2023-03-04T11:52:06.816Z,1.43
2023-03-04T11:54:46.459Z,1.79
2023-03-04T11:57:26.296Z,1.18
2023-03-04T12:00:05.142Z,1.46
2023-03-04T12:02:47.802Z,1.73
2023-03-04T12:05:25.078Z,1.21
2023-03-04T12:08:35.685Z,1.15
2023-03-04T12:11:11.429Z,1.20
2023-03-04T12:14:02.726Z,1.00
2023-03-04T12:16:48.476Z,1.13
2023-03-04T12:19:35.083Z,1.01
2023-03-04T12:22:25.556Z,0.54
2023-03-04T12:25:36.223Z,1.38
2023-03-04T12:28:20.456Z,1.03
2023-03-04T12:31:00.954Z,1.14
2023-03-04T12:33:40.087Z,0.96
2023-03-04T12:36:18.639Z,0.97
2023-03-04T12:39:01.953Z,0.96
2023-03-04T12:41:49.669Z,1.56
2023-03-04T12:44:21.024Z,1.50
2023-03-04T12:47:11.951Z,1.15
2023-03-04T12:49:56.766Z,1.50
2023-03-04T12:52:36.154Z,1.68
2023-03-04T12:55:09.429Z,1.64
2023-03-04T12:57:38.824Z,1.80
2023-03-04T13:00:23.725Z,1.74
2023-03-04T13:03:10.360Z,1.26
2023-03-04T13:06:03.941Z,1.41
2023-03-04T13:08:41.934Z,1.49
2023-03-04T13:11:42.475Z,2.01
2023-03-04T13:14:26.393Z,2.39
2023-03-04T13:16:57.502Z,1.65
2023-03-04T13:19:47.166Z,1.92
2023-03-04T13:22:34.704Z,1.68
2023-03-04T13:25:19.464Z,2.18
2023-03-04T13:27:50.173Z,2.56
2023-03-04T13:30:44.884Z,2.35
2023-03-04T13:33:53.289Z,2.37
2023-03-04T13:36:34.122Z,2.28
2023-03-04T13:39:04.020Z,1.81
2023-03-04T13:41:34.200Z,2.00
2023-03-04T13:44:03.226Z,2.02
2023-03-04T13:46:42.843Z,1.96
2023-03-04T13:49:23.719Z,2.32
2023-03-04T13:51:52.883Z,2.36
2023-03-04T13:54:28.834Z,2.23
2023-03-04T13:57:17.926Z,2.39
2023-03-04T13:59:48.931Z,2.09
2023-03-04T14:02:20.082Z,2.10
2023-03-04T14:04:59.723Z,2.04
2023-03-04T14:07:29.646Z,2.41
2023-03-04T14:10:01.990Z,2.81
2023-03-04T14:12:34.599Z,2.63
2023-03-04T14:15:05.857Z,2.91
2023-03-04T14:17:42.801Z,2.15
2023-03-04T14:20:28.851Z,2.97
2023-03-04T14:22:57.759Z,2.90
2023-03-04T14:25:28.018Z,1.91
2023-03-04T14:28:11.167Z,1.88
2023-03-04T14:30:43.330Z,1.98
2023-03-04T14:33:18.887Z,2.12
2023-03-04T14:35:50.063Z,2.21
2023-03-04T14:38:24.545Z,2.08
2023-03-04T14:40:58.405Z,2.21
2023-03-04T14:43:28.059Z,2.08
2023-03-04T14:45:59.796Z,2.37
2023-03-04T14:48:31.991Z,1.85
2023-03-04T14:51:03.341Z,2.78
2023-03-04T14:53:32.602Z,2.20
2023-03-04T14:56:04.563Z,2.22
2023-03-04T14:58:34.373Z,2.39
2023-03-04T15:01:16.490Z,2.42
2023-03-04T15:03:57.497Z,2.74
2023-03-04T15:06:29.464Z,2.68
2023-03-04T15:09:01.270Z,2.46
2023-03-04T15:11:32.858Z,2.75
2023-03-04T15:14:02.843Z,2.67
2023-03-04T15:16:55.051Z,2.60
2023-03-04T15:19:28.415Z,2.49
2023-03-04T15:22:06.638Z,2.32
2023-03-04T15:24:35.022Z,2.52
2023-03-04T15:27:04.279Z,2.55
2023-03-04T15:29:32.496Z,2.74
2023-03-04T15:32:01.413Z,2.76
2023-03-04T15:34:29.717Z,2.64
2023-03-04T15:37:00.411Z,2.38
2023-03-04T15:39:30.000Z,2.34
2023-03-04T15:41:58.366Z,2.90
2023-03-04T15:44:26.573Z,3.43
2023-03-04T15:46:54.671Z,2.61
2023-03-04T15:49:22.843Z,2.98
2023-03-04T15:51:51.018Z,2.96
2023-03-04T15:54:19.185Z,3.14
2023-03-04T15:56:48.673Z,3.41
2023-03-04T15:59:18.504Z,2.98
2023-03-04T16:01:46.756Z,3.12
2023-03-04T16:04:17.257Z,3.27
2023-03-04T16:06:46.798Z,3.60
2023-03-04T16:09:17.957Z,3.25
2023-03-04T16:11:48.559Z,2.94
2023-03-04T16:14:17.766Z,2.93
2023-03-04T16:16:47.025Z,3.00
2023-03-04T16:19:15.368Z,2.85
2023-03-04T16:21:43.627Z,2.97
2023-03-04T16:24:17.791Z,3.33
2023-03-04T16:26:46.059Z,2.86
2023-03-04T16:29:16.644Z,3.21
2023-03-04T16:31:45.182Z,3.00
2023-03-04T16:34:13.321Z,2.98
2023-03-04T16:36:41.593Z,2.96
2023-03-04T16:39:18.969Z,2.86
2023-03-04T16:41:47.220Z,2.74
2023-03-04T16:44:17.117Z,2.98
2023-03-04T16:46:45.666Z,3.04
2023-03-04T16:49:16.289Z,3.13
2023-03-04T16:51:48.219Z,2.70
2023-03-04T16:54:26.639Z,2.97
2023-03-04T16:56:55.752Z,3.01
2023-03-04T16:59:25.272Z,2.89
2023-03-04T17:01:54.629Z,2.98
2023-03-04T17:04:23.702Z,3.19
2023-03-04T17:06:52.001Z,2.64
2023-03-04T17:09:20.132Z,2.88
2023-03-04T17:11:48.693Z,3.19
2023-03-04T17:14:16.861Z,2.85
2023-03-04T17:16:46.445Z,3.32
2023-03-04T17:19:14.632Z,2.81
2023-03-04T17:21:42.819Z,2.95
2023-03-04T17:24:11.982Z,2.76
2023-03-04T17:26:40.760Z,2.89
2023-03-04T17:29:08.983Z,2.70
2023-03-04T17:31:38.130Z,2.77
2023-03-04T17:34:08.466Z,3.28
2023-03-04T17:36:36.681Z,3.00
2023-03-04T17:39:05.776Z,3.02
2023-03-04T17:41:36.127Z,2.77
2023-03-04T17:44:05.968Z,3.19
2023-03-04T17:46:34.268Z,2.62
2023-03-04T17:49:02.474Z,2.82
2023-03-04T17:51:34.170Z,2.98
2023-03-04T17:54:02.839Z,3.23
2023-03-04T17:56:31.501Z,3.03
2023-03-04T17:59:00.605Z,2.78
2023-03-04T18:01:29.099Z,2.78
2023-03-04T18:03:57.529Z,3.14
2023-03-04T18:06:26.019Z,2.93
2023-03-04T18:08:56.159Z,2.93
2023-03-04T19:38:01.536Z,2.96
2023-03-04T19:40:29.864Z,2.74
2023-03-04T19:42:58.150Z,3.11
2023-03-04T19:46:10.154Z,2.00
2023-03-04T19:48:41.398Z,1.72
2023-03-04T19:51:15.915Z,2.07
2023-03-04T19:53:44.085Z,2.11
2023-03-04T19:56:12.420Z,1.64
2023-03-04T19:58:40.530Z,1.77
2023-03-04T20:01:21.264Z,2.16
2023-03-04T20:03:49.333Z,2.33
2023-03-04T20:06:17.369Z,2.23
2023-03-04T20:08:45.431Z,2.57
2023-03-04T20:11:14.642Z,2.09
2023-03-04T20:13:42.789Z,2.46
2023-03-04T20:16:13.377Z,2.21
2023-03-04T20:18:42.455Z,2.46
2023-03-04T20:21:11.164Z,2.06
2023-03-04T20:23:39.379Z,2.39
2023-03-04T20:26:07.621Z,2.67
2023-03-04T20:28:49.933Z,2.14
2023-03-04T20:31:23.161Z,2.80
2023-03-04T20:33:52.687Z,1.85
2023-03-04T20:36:22.301Z,1.45
2023-03-04T20:38:55.851Z,0.59
2023-03-04T20:41:31.441Z,0.93
2023-03-04T20:44:00.290Z,0.74
2023-03-04T20:46:33.494Z,1.23
2023-03-04T20:49:04.630Z,2.00
2023-03-04T20:51:33.714Z,2.25
2023-03-04T20:54:02.076Z,2.31
2023-03-04T20:56:30.361Z,2.41
2023-03-04T20:59:01.221Z,2.31
2023-03-04T21:01:32.086Z,2.17
2023-03-04T21:04:01.176Z,2.24
2023-03-04T21:06:29.605Z,2.28
2023-03-04T21:09:00.691Z,2.61
2023-03-04T21:11:28.936Z,2.51
2023-03-04T21:13:57.867Z,2.58
2023-03-04T21:16:29.688Z,2.70
2023-03-04T21:19:00.114Z,2.49
2023-03-04T21:21:29.786Z,2.19
2023-03-04T21:23:59.596Z,2.48
2023-03-04T21:26:27.858Z,2.38
2023-03-04T21:28:55.999Z,2.29
2023-03-04T21:31:26.246Z,2.26
2023-03-04T21:33:56.530Z,2.13
2023-03-04T21:36:26.118Z,2.37
2023-03-04T21:38:54.378Z,2.13
2023-03-04T21:41:24.635Z,2.12
2023-03-04T21:43:53.069Z,2.35
2023-03-04T21:46:22.837Z,1.60
2023-03-04T21:48:50.942Z,1.66
2023-03-04T21:51:19.085Z,1.71
2023-03-04T21:53:48.539Z,2.00
2023-03-04T21:56:16.623Z,1.74
2023-03-04T21:58:45.957Z,1.94
2023-03-04T22:01:15.434Z,1.63
2023-03-04T22:03:43.581Z,1.45
2023-03-04T22:06:13.360Z,1.29
2023-03-04T22:08:42.495Z,1.21
2023-03-04T22:11:12.831Z,1.36
2023-03-04T22:13:41.522Z,1.49
2023-03-04T22:16:11.024Z,1.34
2023-03-04T22:18:40.786Z,1.62
2023-03-04T22:21:10.824Z,1.31
2023-03-04T22:23:39.197Z,1.45
2023-03-04T22:26:09.342Z,2.10
2023-03-04T22:28:39.487Z,1.96
2023-03-04T22:31:15.555Z,2.41
2023-03-04T22:33:44.786Z,1.70
2023-03-04T22:36:13.751Z,2.44
2023-03-04T22:38:44.591Z,2.34
2023-03-04T22:41:16.302Z,2.65
2023-03-04T22:43:46.437Z,2.80
2023-03-04T22:46:15.740Z,3.01
2023-03-04T22:48:44.042Z,2.69
2023-03-04T22:51:12.759Z,2.63
2023-03-04T22:53:41.264Z,2.76
2023-03-04T22:56:09.392Z,1.96
2023-03-04T22:58:37.493Z,1.92
2023-03-04T23:01:08.004Z,1.37
2023-03-04T23:03:36.820Z,1.47
2023-03-04T23:06:08.090Z,1.49
2023-03-04T23:08:38.045Z,1.54
2023-03-04T23:11:10.173Z,1.51
2023-03-04T23:13:38.787Z,1.77
2023-03-04T23:16:09.990Z,2.23
2023-03-04T23:18:39.324Z,2.44
2023-03-04T23:21:08.561Z,2.58
2023-03-04T23:23:37.397Z,3.28
2023-03-04T23:26:05.918Z,3.39
2023-03-04T23:28:33.933Z,3.01
2023-03-04T23:31:03.314Z,3.37
2023-03-04T23:33:34.404Z,3.55
2023-03-04T23:36:02.777Z,3.37
2023-03-04T23:38:30.875Z,3.49
2023-03-04T23:40:58.925Z,3.27
2023-03-04T23:43:29.044Z,2.76
2023-03-04T23:45:59.088Z,3.06
2023-03-04T23:48:27.329Z,2.78
2023-03-04T23:51:00.038Z,2.47
2023-03-04T23:53:28.844Z,2.90
2023-03-04T23:55:56.935Z,2.55
2023-03-04T23:58:25.023Z,2.31
